createdAt,value
2018-06-06T00:00:41.813Z,20.5
2018-06-06T00:01:43.433Z,30.4
2018-06-06T00:02:45.050Z,32.5
2018-06-06T00:03:46.668Z,34.3
2018-06-06T00:04:48.287Z,23.5
2018-06-06T00:05:49.898Z,25.3
2018-06-06T00:06:51.519Z,21.9
2018-06-06T00:07:53.137Z,23.8
2018-06-06T00:08:54.752Z,23.7
2018-06-06T00:09:56.372Z,23.0
2018-06-06T00:10:57.991Z,23.6
2018-06-06T00:11:59.620Z,22.2
2018-06-06T00:13:01.229Z,39.8
2018-06-06T00:14:02.849Z,19.1
2018-06-06T00:15:04.469Z,23.3
2018-06-06T00:16:06.086Z,26.7
2018-06-06T00:17:07.706Z,22.4
2018-06-06T00:18:09.331Z,23.7
2018-06-06T00:19:10.938Z,30.6
2018-06-06T00:20:12.557Z,20.7
2018-06-06T00:21:14.171Z,19.7
2018-06-06T00:22:15.790Z,30.3
2018-06-06T00:23:17.404Z,19.8
2018-06-06T00:24:19.022Z,24.4
2018-06-06T00:25:20.640Z,24.2
2018-06-06T00:26:22.258Z,19.6
2018-06-06T00:27:23.874Z,18.5
2018-06-06T00:28:25.490Z,32.2
2018-06-06T00:29:27.113Z,22.6
2018-06-06T00:30:28.729Z,25.3
2018-06-06T00:31:30.346Z,27.9
2018-06-06T00:32:31.961Z,22.5
2018-06-06T00:33:33.580Z,34.3
2018-06-06T00:34:35.199Z,29.5
2018-06-06T00:35:36.819Z,27.8
2018-06-06T00:36:38.430Z,26.0
2018-06-06T00:37:40.053Z,23.8
2018-06-06T00:38:41.673Z,24.5
2018-06-06T00:39:43.285Z,22.8
2018-06-06T00:40:44.906Z,26.5
2018-06-06T00:41:46.553Z,20.4
2018-06-06T00:42:48.141Z,22.7
2018-06-06T00:43:49.752Z,17.2
2018-06-06T00:44:51.372Z,30.0
2018-06-06T00:45:52.988Z,31.4
2018-06-06T00:46:54.609Z,26.6
2018-06-06T00:47:56.220Z,20.7
2018-06-06T00:48:57.841Z,19.7
2018-06-06T00:49:59.455Z,21.8
2018-06-06T00:51:01.075Z,35.3
2018-06-06T00:52:02.693Z,24.7
2018-06-06T00:53:04.310Z,26.4
2018-06-06T00:54:05.923Z,20.9
2018-06-06T00:55:07.549Z,27.8
2018-06-06T00:56:09.160Z,20.7
2018-06-06T00:57:10.781Z,23.4
2018-06-06T00:58:12.400Z,19.9
2018-06-06T00:59:14.019Z,18.0
2018-06-06T01:00:15.639Z,20.3
2018-06-06T01:01:17.250Z,27.6
2018-06-06T01:02:18.870Z,19.8
2018-06-06T01:03:20.485Z,20.9
2018-06-06T01:04:22.099Z,23.0
2018-06-06T01:05:23.720Z,22.6
2018-06-06T01:06:25.337Z,26.8
2018-06-06T01:07:26.958Z,21.3
2018-06-06T01:08:28.570Z,28.2
2018-06-06T01:09:30.186Z,20.9
2018-06-06T01:10:31.804Z,30.4
2018-06-06T01:11:33.421Z,27.1
2018-06-06T01:12:35.034Z,25.2
2018-06-06T01:13:36.650Z,25.7
2018-06-06T01:14:38.273Z,23.7
2018-06-06T01:15:39.892Z,19.5
2018-06-06T01:16:41.502Z,21.2
2018-06-06T01:17:43.121Z,19.4
2018-06-06T01:18:44.740Z,44.3
2018-06-06T01:19:46.365Z,20.0
2018-06-06T01:20:47.986Z,22.9
2018-06-06T01:21:49.599Z,22.5
2018-06-06T01:22:51.218Z,22.9
2018-06-06T01:23:52.842Z,28.0
2018-06-06T01:24:54.450Z,23.1
2018-06-06T01:25:56.065Z,35.9
2018-06-06T01:26:57.687Z,20.1
2018-06-06T01:27:59.303Z,31.4
2018-06-06T01:29:00.918Z,29.3
2018-06-06T01:30:02.544Z,19.9
2018-06-06T01:31:04.157Z,27.3
2018-06-06T01:32:05.773Z,32.8
2018-06-06T01:33:07.393Z,20.3
2018-06-06T01:34:09.040Z,41.7
2018-06-06T01:35:10.631Z,33.1
2018-06-06T01:36:12.244Z,41.7
2018-06-06T01:37:13.865Z,31.1
2018-06-06T01:38:15.482Z,25.1
2018-06-06T01:39:17.098Z,31.7
2018-06-06T01:40:18.721Z,26.1
2018-06-06T01:41:20.337Z,32.2
2018-06-06T01:42:21.956Z,25.6
2018-06-06T01:43:23.576Z,47.4
2018-06-06T01:44:25.195Z,30.0
2018-06-06T01:45:26.806Z,28.1
2018-06-06T01:46:28.421Z,27.4
2018-06-06T01:47:30.037Z,30.4
2018-06-06T01:48:31.659Z,35.4
2018-06-06T01:49:33.276Z,31.3
2018-06-06T01:50:34.893Z,32.2
2018-06-06T01:51:36.514Z,33.7
2018-06-06T01:52:38.127Z,26.1
2018-06-06T01:53:39.748Z,36.2
2018-06-06T01:54:41.361Z,28.0
2018-06-06T01:55:42.984Z,33.6
2018-06-06T01:56:44.601Z,32.3
2018-06-06T01:57:46.220Z,32.0
2018-06-06T01:58:47.841Z,31.6
2018-06-06T01:59:49.452Z,31.5
2018-06-06T02:00:51.076Z,35.5
2018-06-06T02:01:52.687Z,32.5
2018-06-06T02:02:54.308Z,30.4
2018-06-06T02:03:55.930Z,28.9
2018-06-06T02:04:57.551Z,22.4
2018-06-06T02:05:59.166Z,27.6
2018-06-06T02:07:00.784Z,28.9
2018-06-06T02:08:02.401Z,29.5
2018-06-06T02:09:04.020Z,36.3
2018-06-06T02:10:05.636Z,30.6
2018-06-06T02:11:07.257Z,33.2
2018-06-06T02:12:08.871Z,40.7
2018-06-06T02:13:10.487Z,33.8
2018-06-06T02:14:12.108Z,28.3
2018-06-06T02:15:13.720Z,27.6
2018-06-06T02:16:15.343Z,33.2
2018-06-06T02:17:16.961Z,42.2
2018-06-06T02:18:18.576Z,30.3
2018-06-06T02:19:20.196Z,36.3
2018-06-06T02:20:21.809Z,32.8
2018-06-06T02:21:23.426Z,40.0
2018-06-06T02:22:25.042Z,30.5
2018-06-06T02:23:26.658Z,40.3
2018-06-06T02:24:28.273Z,26.4
2018-06-06T02:25:29.895Z,28.2
2018-06-06T02:26:31.510Z,29.5
2018-06-06T02:27:33.132Z,29.9
2018-06-06T02:28:34.742Z,31.2
2018-06-06T02:29:36.356Z,35.1
2018-06-06T02:30:37.977Z,33.8
2018-06-06T02:31:39.590Z,30.6
2018-06-06T02:32:41.212Z,28.5
2018-06-06T02:33:42.836Z,28.7
2018-06-06T02:34:44.445Z,37.0
2018-06-06T02:35:46.065Z,32.5
2018-06-06T02:36:47.675Z,22.3
2018-06-06T02:37:49.292Z,33.8
2018-06-06T02:38:50.905Z,41.5
2018-06-06T02:39:52.523Z,20.4
2018-06-06T02:40:54.140Z,28.8
2018-06-06T02:41:55.758Z,36.1
2018-06-06T02:42:57.372Z,33.2
2018-06-06T02:43:58.988Z,28.3
2018-06-06T02:45:00.608Z,27.1
2018-06-06T02:46:02.229Z,32.1
2018-06-06T02:47:03.854Z,23.9
2018-06-06T02:48:05.473Z,38.5
2018-06-06T02:49:07.084Z,34.4
2018-06-06T02:50:08.705Z,33.8
2018-06-06T02:51:10.319Z,29.5
2018-06-06T02:52:11.939Z,25.2
2018-06-06T02:53:13.559Z,31.0
2018-06-06T02:54:15.182Z,24.9
2018-06-06T02:55:16.804Z,33.4
2018-06-06T02:56:18.425Z,28.4
2018-06-06T02:57:20.050Z,26.2
2018-06-06T02:58:21.672Z,30.9
2018-06-06T02:59:23.284Z,37.9
2018-06-06T03:00:24.910Z,30.7
2018-06-06T03:01:27.043Z,31.7
2018-06-06T03:02:29.191Z,28.0
2018-06-06T03:03:30.820Z,33.1
2018-06-06T03:04:32.435Z,32.6
2018-06-06T03:05:34.056Z,30.9
2018-06-06T03:06:35.679Z,23.4
2018-06-06T03:07:37.295Z,33.3
2018-06-06T03:08:38.914Z,31.4
2018-06-06T03:09:40.538Z,39.9
2018-06-06T03:10:42.159Z,27.7
2018-06-06T03:11:43.779Z,28.0
2018-06-06T03:12:45.399Z,31.8
2018-06-06T03:13:47.018Z,36.2
2018-06-06T03:14:48.640Z,28.0
2018-06-06T03:15:50.260Z,31.9
2018-06-06T03:16:51.913Z,27.6
2018-06-06T03:17:53.513Z,30.8
2018-06-06T03:18:55.131Z,30.3
2018-06-06T03:19:56.753Z,25.3
2018-06-06T03:20:58.379Z,25.9
2018-06-06T03:21:59.995Z,28.6
2018-06-06T03:23:01.619Z,28.9
2018-06-06T03:24:03.244Z,26.6
2018-06-06T03:25:04.867Z,30.2
2018-06-06T03:26:06.520Z,33.2
2018-06-06T03:27:08.137Z,30.1
2018-06-06T03:28:09.755Z,26.9
2018-06-06T03:29:11.377Z,22.4
2018-06-06T03:30:12.996Z,31.3
2018-06-06T03:31:14.618Z,26.6
2018-06-06T03:32:16.239Z,30.5
2018-06-06T03:33:17.854Z,36.3
2018-06-06T03:34:19.477Z,24.7
2018-06-06T03:35:21.097Z,31.1
2018-06-06T03:36:22.718Z,47.1
2018-06-06T03:37:24.342Z,40.1
2018-06-06T03:38:25.960Z,29.3
2018-06-06T03:39:27.595Z,31.7
2018-06-06T03:40:29.200Z,24.7
2018-06-06T03:41:30.823Z,32.6
2018-06-06T03:42:32.447Z,31.1
2018-06-06T03:43:34.062Z,29.9
2018-06-06T03:44:35.684Z,37.7
2018-06-06T03:45:37.309Z,33.4
2018-06-06T03:46:38.924Z,23.9
2018-06-06T03:47:40.543Z,31.2
2018-06-06T03:48:42.171Z,34.3
2018-06-06T03:49:43.792Z,33.5
2018-06-06T03:50:45.413Z,26.2
2018-06-06T03:51:47.037Z,30.4
2018-06-06T03:52:48.655Z,39.0
2018-06-06T03:53:50.278Z,34.4
2018-06-06T03:54:51.893Z,26.1
2018-06-06T03:55:53.511Z,30.9
2018-06-06T03:56:55.137Z,27.8
2018-06-06T03:57:56.758Z,35.5
2018-06-06T03:58:58.380Z,30.1
2018-06-06T04:00:00.066Z,23.3
2018-06-06T04:01:01.624Z,20.1
2018-06-06T04:02:03.245Z,24.6
2018-06-06T04:03:04.870Z,34.0
2018-06-06T04:04:06.494Z,27.5
2018-06-06T04:05:08.116Z,29.7
2018-06-06T04:06:09.736Z,29.5
2018-06-06T04:07:11.361Z,29.7
2018-06-06T04:08:12.981Z,27.6
2018-06-06T04:09:14.613Z,27.6
2018-06-06T04:10:16.237Z,32.7
2018-06-06T04:11:17.856Z,31.7
2018-06-06T04:12:19.479Z,33.9
2018-06-06T04:13:21.107Z,27.6
2018-06-06T04:14:22.733Z,28.3
2018-06-06T04:15:24.349Z,30.3
2018-06-06T04:16:25.975Z,29.4
2018-06-06T04:17:27.594Z,32.6
2018-06-06T04:18:29.215Z,53.5
2018-06-06T04:19:30.843Z,23.9
2018-06-06T04:20:32.472Z,26.1
2018-06-06T04:21:34.091Z,31.8
2018-06-06T04:22:35.716Z,32.8
2018-06-06T04:23:37.337Z,26.2
2018-06-06T04:24:38.957Z,29.4
2018-06-06T04:25:40.581Z,25.3
2018-06-06T04:26:42.203Z,30.0
2018-06-06T04:27:43.828Z,22.4
2018-06-06T04:28:45.452Z,32.4
2018-06-06T04:29:47.073Z,35.7
2018-06-06T04:30:48.689Z,27.4
2018-06-06T04:31:50.316Z,38.5
2018-06-06T04:32:51.946Z,99.2
2018-06-06T04:33:53.567Z,72.0
2018-06-06T04:34:55.193Z,27.1
2018-06-06T04:35:56.817Z,33.4
2018-06-06T04:36:58.552Z,36.3
2018-06-06T04:38:00.310Z,35.9
2018-06-06T04:39:03.271Z,25.6
2018-06-06T04:40:04.899Z,35.6
2018-06-06T04:41:06.522Z,34.1
2018-06-06T04:42:08.145Z,24.0
2018-06-06T04:43:09.773Z,29.5
2018-06-06T04:44:11.389Z,46.6
2018-06-06T04:45:13.046Z,25.5
2018-06-06T04:46:14.672Z,29.8
2018-06-06T04:47:16.297Z,38.0
2018-06-06T04:48:17.915Z,27.4
2018-06-06T04:49:19.537Z,35.0
2018-06-06T04:50:21.162Z,30.1
2018-06-06T04:51:22.783Z,38.4
2018-06-06T04:52:24.406Z,34.1
2018-06-06T04:53:26.021Z,28.8
2018-06-06T04:54:27.649Z,41.7
2018-06-06T04:55:29.272Z,30.5
2018-06-06T04:56:30.893Z,63.7
2018-06-06T04:57:32.523Z,32.5
2018-06-06T04:58:34.158Z,39.9
2018-06-06T04:59:35.782Z,37.2
2018-06-06T05:00:37.406Z,25.9
2018-06-06T05:01:39.028Z,27.7
2018-06-06T05:02:40.651Z,33.9
2018-06-06T05:03:42.278Z,32.7
2018-06-06T05:04:43.901Z,35.4
2018-06-06T05:05:45.573Z,25.3
2018-06-06T05:06:47.145Z,32.4
2018-06-06T05:07:48.770Z,30.1
2018-06-06T05:08:50.391Z,32.1
2018-06-06T05:09:52.013Z,36.7
2018-06-06T05:10:55.053Z,31.7
2018-06-06T05:11:56.678Z,32.4
2018-06-06T05:12:58.293Z,29.8
2018-06-06T05:13:59.920Z,36.7
2018-06-06T05:15:01.539Z,27.7
2018-06-06T05:16:03.159Z,32.9
2018-06-06T05:17:04.792Z,26.3
2018-06-06T05:18:06.412Z,23.3
2018-06-06T05:19:08.039Z,29.3
2018-06-06T05:20:09.664Z,31.0
2018-06-06T05:21:11.282Z,32.4
2018-06-06T05:22:12.907Z,28.9
2018-06-06T05:23:14.527Z,32.8
2018-06-06T05:24:16.148Z,21.7
2018-06-06T05:25:17.907Z,38.6
2018-06-06T05:26:19.526Z,40.5
2018-06-06T05:27:21.158Z,28.8
2018-06-06T05:28:22.782Z,82.0
2018-06-06T05:29:24.402Z,35.7
2018-06-06T05:30:26.029Z,38.0
2018-06-06T05:31:27.649Z,38.4
2018-06-06T05:32:29.273Z,35.0
2018-06-06T05:33:30.904Z,22.0
2018-06-06T05:34:32.520Z,27.0
2018-06-06T05:35:34.148Z,28.3
2018-06-06T05:36:35.767Z,24.7
2018-06-06T05:37:37.393Z,26.3
2018-06-06T05:38:39.021Z,23.5
2018-06-06T05:39:40.647Z,23.8
2018-06-06T05:40:42.274Z,25.2
2018-06-06T05:41:43.896Z,25.8
2018-06-06T05:42:45.518Z,18.8
2018-06-06T05:43:47.147Z,28.7
2018-06-06T05:44:48.769Z,35.8
2018-06-06T05:45:50.386Z,23.2
2018-06-06T05:46:52.008Z,21.4
2018-06-06T05:47:53.637Z,38.7
2018-06-06T05:48:55.257Z,26.9
2018-06-06T05:49:56.884Z,30.6
2018-06-06T05:50:58.505Z,32.8
2018-06-06T05:52:00.137Z,29.6
2018-06-06T05:53:01.757Z,27.4
2018-06-06T05:54:03.384Z,110.1
2018-06-06T05:55:05.003Z,45.0
2018-06-06T05:56:06.624Z,101.8
2018-06-06T05:57:08.253Z,26.9
2018-06-06T05:58:09.869Z,19.6
2018-06-06T05:59:11.490Z,23.5
2018-06-06T06:00:13.118Z,24.8
2018-06-06T06:01:14.740Z,31.1
2018-06-06T06:02:16.368Z,23.2
2018-06-06T06:03:17.992Z,20.9
2018-06-06T06:04:19.610Z,19.9
2018-06-06T06:05:21.239Z,25.2
2018-06-06T06:06:22.860Z,32.8
2018-06-06T06:07:24.487Z,27.0
2018-06-06T06:08:26.130Z,18.3
2018-06-06T06:09:27.739Z,24.5
2018-06-06T06:10:29.362Z,23.9
2018-06-06T06:11:30.979Z,23.6
2018-06-06T06:12:32.600Z,24.6
2018-06-06T06:13:34.228Z,20.8
2018-06-06T06:14:35.851Z,25.3
2018-06-06T06:15:37.473Z,23.4
2018-06-06T06:16:39.106Z,25.3
2018-06-06T06:17:40.727Z,19.5
2018-06-06T06:18:42.354Z,25.5
2018-06-06T06:19:43.983Z,26.9
2018-06-06T06:20:45.605Z,23.8
2018-06-06T06:21:47.235Z,21.5
2018-06-06T06:22:48.857Z,22.7
2018-06-06T06:23:50.487Z,26.6
2018-06-06T06:24:52.110Z,28.2
2018-06-06T06:25:53.754Z,150.0
2018-06-06T06:26:55.374Z,32.3
2018-06-06T06:27:57.007Z,27.4
2018-06-06T06:28:58.633Z,20.6
2018-06-06T06:30:00.306Z,22.9
2018-06-06T06:31:01.929Z,26.0
2018-06-06T06:32:03.548Z,18.9
2018-06-06T06:33:05.180Z,14.4
2018-06-06T06:34:06.803Z,21.5
2018-06-06T06:35:08.437Z,30.3
2018-06-06T06:36:10.065Z,18.9
2018-06-06T06:37:11.692Z,15.9
2018-06-06T06:38:13.328Z,20.4
2018-06-06T06:39:14.953Z,19.3
2018-06-06T06:40:16.590Z,18.0
2018-06-06T06:41:18.217Z,20.3
2018-06-06T06:42:19.846Z,14.6
2018-06-06T06:43:21.481Z,18.2
2018-06-06T06:44:23.113Z,18.1
2018-06-06T06:45:24.748Z,18.1
2018-06-06T06:46:26.379Z,14.5
2018-06-06T06:47:28.014Z,21.2
2018-06-06T06:48:29.647Z,19.9
2018-06-06T06:49:31.276Z,22.7
2018-06-06T06:50:32.911Z,15.7
2018-06-06T06:51:34.544Z,22.4
2018-06-06T06:52:36.192Z,14.9
2018-06-06T06:53:37.819Z,16.3
2018-06-06T06:54:39.446Z,16.4
2018-06-06T06:55:41.078Z,21.0
2018-06-06T06:56:42.713Z,15.0
2018-06-06T06:57:44.349Z,18.7
2018-06-06T06:58:45.984Z,27.0
2018-06-06T06:59:47.614Z,18.0
2018-06-06T07:00:49.255Z,14.4
2018-06-06T07:01:50.896Z,18.9
2018-06-06T07:02:52.527Z,19.2
2018-06-06T07:03:54.158Z,17.4
2018-06-06T07:04:55.795Z,16.7
2018-06-06T07:05:57.429Z,16.9
2018-06-06T07:06:59.066Z,13.0
2018-06-06T07:08:00.701Z,10.7
2018-06-06T07:09:02.330Z,12.4
2018-06-06T07:10:03.972Z,17.7
2018-06-06T07:11:05.604Z,18.0
2018-06-06T07:12:07.235Z,15.0
2018-06-06T07:13:08.870Z,13.2
2018-06-06T07:14:10.510Z,13.3
2018-06-06T07:15:12.151Z,17.6
2018-06-06T07:16:13.782Z,19.8
2018-06-06T07:17:15.425Z,21.7
2018-06-06T07:18:17.048Z,17.1
2018-06-06T07:19:18.744Z,16.6
2018-06-06T07:20:20.323Z,14.8
2018-06-06T07:21:21.966Z,12.1
2018-06-06T07:22:23.595Z,11.1
2018-06-06T07:23:25.241Z,17.4
2018-06-06T07:24:26.870Z,12.9
2018-06-06T07:25:28.508Z,20.5
2018-06-06T07:26:30.150Z,13.5
2018-06-06T07:27:31.786Z,14.4
2018-06-06T07:28:33.428Z,13.2
2018-06-06T07:29:35.060Z,13.2
2018-06-06T07:30:36.706Z,18.5
2018-06-06T07:31:38.358Z,10.3
2018-06-06T07:32:39.985Z,13.9
2018-06-06T07:33:41.621Z,15.6
2018-06-06T07:34:43.257Z,11.9
2018-06-06T07:35:44.901Z,11.4
2018-06-06T07:36:46.532Z,14.0
2018-06-06T07:37:48.176Z,9.5
2018-06-06T07:38:49.810Z,14.8
2018-06-06T07:39:51.450Z,11.9
2018-06-06T07:40:53.088Z,8.9
2018-06-06T07:41:54.722Z,21.3
2018-06-06T07:42:56.365Z,10.6
2018-06-06T07:43:58.002Z,13.2
2018-06-06T07:44:59.643Z,11.5
2018-06-06T07:46:01.301Z,14.1
2018-06-06T07:47:02.944Z,12.0
2018-06-06T07:48:04.628Z,10.7
2018-06-06T07:49:06.310Z,15.1
2018-06-06T07:50:07.948Z,10.5
2018-06-06T07:51:09.587Z,13.1
2018-06-06T07:52:11.307Z,13.0
2018-06-06T07:53:12.951Z,11.6
2018-06-06T07:54:14.666Z,10.6
2018-06-06T07:55:16.309Z,10.9
2018-06-06T07:56:17.948Z,10.8
2018-06-06T07:57:19.618Z,11.0
2018-06-06T07:58:21.260Z,15.9
2018-06-06T07:59:22.893Z,8.9
2018-06-06T08:00:24.639Z,17.6
2018-06-06T08:01:26.295Z,21.0
2018-06-06T08:02:27.918Z,9.0
2018-06-06T08:03:29.557Z,21.4
2018-06-06T08:04:31.207Z,10.4
2018-06-06T08:05:32.861Z,10.9
2018-06-06T08:06:34.566Z,13.9
2018-06-06T08:07:36.211Z,10.6
2018-06-06T08:08:37.924Z,8.6
2018-06-06T08:09:39.589Z,8.5
2018-06-06T08:10:41.207Z,11.8
2018-06-06T08:11:42.845Z,8.8
2018-06-06T08:12:44.500Z,9.9
2018-06-06T08:13:46.137Z,11.2
2018-06-06T08:14:47.799Z,9.2
2018-06-06T08:15:49.472Z,12.2
2018-06-06T08:16:51.071Z,8.1
2018-06-06T08:17:52.729Z,10.1
2018-06-06T08:18:54.416Z,10.1
2018-06-06T08:19:56.023Z,11.4
2018-06-06T08:20:57.722Z,10.5
2018-06-06T08:21:59.367Z,13.0
2018-06-06T08:23:01.013Z,11.4
2018-06-06T08:24:02.657Z,7.9
2018-06-06T08:25:04.300Z,10.9
2018-06-06T08:26:05.945Z,8.8
2018-06-06T08:27:07.589Z,11.9
2018-06-06T08:28:09.228Z,10.9
2018-06-06T08:29:10.871Z,9.1
2018-06-06T08:30:12.513Z,10.8
2018-06-06T08:31:14.154Z,9.5
2018-06-06T08:32:15.798Z,6.7
2018-06-06T08:33:17.441Z,9.7
2018-06-06T08:34:19.087Z,8.5
2018-06-06T08:35:20.734Z,12.1
2018-06-06T08:36:22.404Z,13.1
2018-06-06T08:37:24.015Z,10.2
2018-06-06T08:38:25.658Z,7.2
2018-06-06T08:39:27.308Z,9.9
2018-06-06T08:40:28.945Z,12.4
2018-06-06T08:41:30.593Z,8.8
2018-06-06T08:42:32.232Z,14.5
2018-06-06T08:43:33.873Z,7.0
2018-06-06T08:44:35.540Z,7.3
2018-06-06T08:45:37.161Z,12.2
2018-06-06T08:46:38.811Z,10.4
2018-06-06T08:47:40.456Z,10.9
2018-06-06T08:48:42.096Z,11.9
2018-06-06T08:49:43.739Z,6.7
2018-06-06T08:50:45.427Z,11.2
2018-06-06T08:51:47.022Z,11.8
2018-06-06T08:52:48.675Z,10.2
2018-06-06T08:53:50.320Z,8.9
2018-06-06T08:54:51.967Z,6.7
2018-06-06T08:55:53.603Z,6.4
2018-06-06T08:56:55.246Z,10.0
2018-06-06T08:57:56.886Z,7.2
2018-06-06T08:58:58.536Z,8.8
2018-06-06T09:00:00.177Z,13.1
2018-06-06T09:01:01.828Z,10.9
2018-06-06T09:02:03.476Z,7.2
2018-06-06T09:03:05.114Z,8.7
2018-06-06T09:04:06.765Z,8.7
2018-06-06T09:05:08.402Z,12.1
2018-06-06T09:06:10.046Z,10.3
2018-06-06T09:07:11.696Z,6.6
2018-06-06T09:08:13.332Z,6.6
2018-06-06T09:09:14.987Z,6.9
2018-06-06T09:10:16.626Z,8.5
2018-06-06T09:11:18.269Z,10.1
2018-06-06T09:12:19.918Z,9.6
2018-06-06T09:13:21.556Z,9.4
2018-06-06T09:14:23.335Z,9.8
2018-06-06T09:15:24.994Z,7.8
2018-06-06T09:16:26.636Z,13.8
2018-06-06T09:17:28.284Z,6.2
2018-06-06T09:18:29.930Z,6.6
2018-06-06T09:19:31.808Z,12.6
2018-06-06T09:20:33.456Z,15.5
2018-06-06T09:21:35.100Z,12.7
2018-06-06T09:22:36.744Z,6.8
2018-06-06T09:23:38.395Z,11.7
2018-06-06T09:24:40.042Z,19.5
2018-06-06T09:25:41.681Z,7.8
2018-06-06T09:26:43.322Z,8.3
2018-06-06T09:27:44.967Z,8.5
2018-06-06T09:28:46.616Z,6.6
2018-06-06T09:29:48.265Z,7.9
2018-06-06T09:30:49.909Z,11.1
2018-06-06T09:31:51.555Z,6.7
2018-06-06T09:32:53.198Z,7.4
2018-06-06T09:33:54.845Z,7.1
2018-06-06T09:34:56.485Z,5.7
2018-06-06T09:35:58.138Z,10.4
2018-06-06T09:36:59.789Z,8.2
2018-06-06T09:38:01.432Z,8.2
2018-06-06T09:39:03.077Z,7.7
2018-06-06T09:40:04.717Z,8.6
2018-06-06T09:41:06.361Z,6.6
2018-06-06T09:42:08.011Z,10.3
2018-06-06T09:43:09.659Z,9.1
2018-06-06T09:44:11.339Z,7.7
2018-06-06T09:45:12.948Z,5.1
2018-06-06T09:46:14.589Z,4.5
2018-06-06T09:47:16.239Z,4.8
2018-06-06T09:48:17.878Z,5.5
2018-06-06T09:49:19.524Z,10.0
2018-06-06T09:50:21.174Z,11.7
2018-06-06T09:51:22.822Z,7.9
2018-06-06T09:52:24.465Z,7.3
2018-06-06T09:53:26.110Z,7.2
2018-06-06T09:54:27.757Z,5.5
2018-06-06T09:55:29.398Z,4.8
2018-06-06T09:56:31.050Z,7.2
2018-06-06T09:57:32.696Z,6.2
2018-06-06T09:58:34.344Z,7.4
2018-06-06T09:59:35.995Z,4.8
2018-06-06T10:00:37.634Z,5.6
2018-06-06T10:01:39.281Z,7.6
2018-06-06T10:02:40.923Z,5.4
2018-06-06T10:03:42.568Z,4.3
2018-06-06T10:04:44.215Z,6.1
2018-06-06T10:05:45.866Z,7.9
2018-06-06T10:06:47.511Z,10.5
2018-06-06T10:07:49.152Z,5.9
2018-06-06T10:08:50.801Z,12.2
2018-06-06T10:09:52.445Z,9.1
2018-06-06T10:10:54.090Z,5.2
2018-06-06T10:11:55.742Z,4.2
2018-06-06T10:12:57.385Z,10.7
2018-06-06T10:13:59.029Z,4.5
2018-06-06T10:15:00.673Z,6.5
2018-06-06T10:16:02.320Z,3.8
2018-06-06T10:17:03.960Z,8.4
2018-06-06T10:18:05.612Z,4.5
2018-06-06T10:19:07.252Z,4.8
2018-06-06T10:20:08.900Z,5.5
2018-06-06T10:21:10.547Z,6.3
2018-06-06T10:22:12.195Z,9.4
2018-06-06T10:23:13.834Z,10.9
2018-06-06T10:24:15.481Z,7.8
2018-06-06T10:25:17.122Z,4.6
2018-06-06T10:26:18.764Z,5.1
2018-06-06T10:27:20.415Z,3.9
2018-06-06T10:28:22.057Z,4.9
2018-06-06T10:29:23.703Z,5.3
2018-06-06T10:30:25.347Z,4.2
2018-06-06T10:31:27.017Z,4.2
2018-06-06T10:32:28.642Z,4.7
2018-06-06T10:33:30.319Z,5.1
2018-06-06T10:34:31.941Z,6.0
2018-06-06T10:35:33.578Z,4.1
2018-06-06T10:36:35.218Z,6.3
2018-06-06T10:37:36.866Z,6.0
2018-06-06T10:38:38.509Z,5.0
2018-06-06T10:39:40.157Z,4.1
2018-06-06T10:40:41.806Z,5.1
2018-06-06T10:41:43.448Z,3.7
2018-06-06T10:42:45.104Z,10.9
2018-06-06T10:43:46.743Z,4.2
2018-06-06T10:44:48.389Z,6.9
2018-06-06T10:45:50.057Z,4.2
2018-06-06T10:46:51.684Z,5.2
2018-06-06T10:47:53.325Z,4.2
2018-06-06T10:48:54.972Z,5.3
2018-06-06T10:49:56.624Z,6.1
2018-06-06T10:50:58.267Z,6.4
2018-06-06T10:51:59.913Z,8.4
2018-06-06T10:53:01.563Z,5.1
2018-06-06T10:54:03.205Z,4.8
2018-06-06T10:55:04.857Z,5.4
2018-06-06T10:56:06.499Z,4.7
2018-06-06T10:57:08.145Z,6.0
2018-06-06T10:58:09.794Z,6.7
2018-06-06T10:59:11.436Z,10.6
2018-06-06T11:00:13.091Z,5.1
2018-06-06T11:01:14.738Z,4.1
2018-06-06T11:02:16.380Z,5.0
2018-06-06T11:03:18.037Z,6.6
2018-06-06T11:04:19.682Z,8.7
2018-06-06T11:05:21.323Z,5.1
2018-06-06T11:06:22.973Z,3.9
2018-06-06T11:07:24.616Z,6.2
2018-06-06T11:08:26.271Z,7.0
2018-06-06T11:09:27.912Z,4.9
2018-06-06T11:10:29.559Z,8.4
2018-06-06T11:11:31.204Z,5.0
2018-06-06T11:12:32.851Z,6.4
2018-06-06T11:13:34.498Z,4.2
2018-06-06T11:14:36.141Z,4.9
2018-06-06T11:15:37.794Z,5.1
2018-06-06T11:16:39.504Z,6.7
2018-06-06T11:17:41.084Z,7.3
2018-06-06T11:18:42.734Z,4.6
2018-06-06T11:19:44.378Z,5.6
2018-06-06T11:20:46.027Z,7.5
2018-06-06T11:21:47.664Z,5.7
2018-06-06T11:22:49.315Z,6.0
2018-06-06T11:23:50.962Z,4.2
2018-06-06T11:24:52.606Z,5.1
2018-06-06T11:25:54.257Z,5.8
2018-06-06T11:26:55.893Z,4.4
2018-06-06T11:27:57.545Z,5.0
2018-06-06T11:28:59.183Z,4.2
2018-06-06T11:30:00.836Z,4.8
2018-06-06T11:31:02.477Z,9.3
2018-06-06T11:32:04.123Z,5.5
2018-06-06T11:33:05.772Z,5.2
2018-06-06T11:34:07.410Z,4.3
2018-06-06T11:35:09.059Z,9.9
2018-06-06T11:36:10.710Z,4.3
2018-06-06T11:37:12.351Z,7.0
2018-06-06T11:38:13.994Z,5.9
2018-06-06T11:39:15.644Z,10.1
2018-06-06T11:40:17.285Z,5.2
2018-06-06T11:41:18.931Z,4.6
2018-06-06T11:42:20.574Z,6.3
2018-06-06T11:43:22.217Z,4.5
2018-06-06T11:44:23.860Z,5.4
2018-06-06T11:45:25.509Z,12.2
2018-06-06T11:46:27.156Z,5.8
2018-06-06T11:47:28.801Z,6.9
2018-06-06T11:48:30.447Z,4.7
2018-06-06T11:49:32.087Z,11.3
2018-06-06T11:50:33.728Z,5.3
2018-06-06T11:51:35.381Z,6.5
2018-06-06T11:52:37.024Z,8.7
2018-06-06T11:53:38.667Z,8.0
2018-06-06T11:54:40.319Z,4.7
2018-06-06T11:55:41.960Z,4.1
2018-06-06T11:56:43.602Z,5.0
2018-06-06T11:57:45.248Z,6.7
2018-06-06T11:58:46.888Z,8.4
2018-06-06T11:59:48.537Z,4.3
2018-06-06T12:00:50.184Z,3.9
2018-06-06T12:01:51.826Z,5.7
2018-06-06T12:02:53.467Z,9.1
2018-06-06T12:03:55.114Z,5.7
2018-06-06T12:04:56.751Z,4.0
2018-06-06T12:05:58.401Z,4.8
2018-06-06T12:07:00.049Z,10.6
2018-06-06T12:08:01.695Z,5.4
2018-06-06T12:09:03.340Z,8.6
2018-06-06T12:10:04.978Z,6.4
2018-06-06T12:11:06.619Z,4.3
2018-06-06T12:12:08.267Z,5.9
2018-06-06T12:13:09.903Z,5.2
2018-06-06T12:14:11.547Z,4.8
2018-06-06T12:15:13.193Z,6.5
2018-06-06T12:16:14.838Z,4.8
2018-06-06T12:17:16.476Z,14.9
2018-06-06T12:18:18.124Z,7.1
2018-06-06T12:19:19.766Z,4.9
2018-06-06T12:20:21.406Z,4.1
2018-06-06T12:21:23.053Z,3.8
2018-06-06T12:22:24.693Z,4.7
2018-06-06T12:23:26.342Z,12.4
2018-06-06T12:24:27.987Z,4.9
2018-06-06T12:25:29.623Z,3.9
2018-06-06T12:26:31.263Z,4.2
2018-06-06T12:27:32.912Z,6.2
2018-06-06T12:28:34.561Z,3.8
2018-06-06T12:29:36.222Z,5.2
2018-06-06T12:30:37.871Z,7.9
2018-06-06T12:31:39.509Z,5.5
2018-06-06T12:32:41.149Z,7.1
2018-06-06T12:33:42.798Z,8.9
2018-06-06T12:34:44.436Z,4.9
2018-06-06T12:35:46.085Z,8.3
2018-06-06T12:36:47.724Z,8.9
2018-06-06T12:37:49.366Z,7.1
2018-06-06T12:38:51.011Z,20.1
2018-06-06T12:39:52.651Z,66.4
2018-06-06T12:40:54.298Z,42.7
2018-06-06T12:41:55.947Z,42.8
2018-06-06T12:42:57.593Z,30.6
2018-06-06T12:43:59.236Z,21.2
2018-06-06T12:45:00.881Z,32.1
2018-06-06T12:46:02.520Z,17.2
2018-06-06T12:47:04.160Z,22.1
2018-06-06T12:48:05.806Z,11.1
2018-06-06T12:49:07.450Z,9.7
2018-06-06T12:50:09.094Z,10.0
2018-06-06T12:51:10.735Z,9.9
2018-06-06T12:52:12.378Z,14.0
2018-06-06T12:53:14.022Z,5.4
2018-06-06T12:54:15.662Z,9.4
2018-06-06T12:55:17.305Z,4.0
2018-06-06T12:56:18.952Z,10.0
2018-06-06T12:57:20.587Z,7.4
2018-06-06T12:58:22.225Z,4.8
2018-06-06T12:59:23.866Z,5.6
2018-06-06T13:00:25.503Z,5.5
2018-06-06T13:01:27.146Z,9.7
2018-06-06T13:02:28.842Z,14.5
2018-06-06T13:03:30.432Z,4.7
2018-06-06T13:04:32.068Z,7.1
2018-06-06T13:05:33.708Z,7.2
2018-06-06T13:06:35.350Z,6.0
2018-06-06T13:07:36.992Z,5.7
2018-06-06T13:08:38.632Z,5.1
2018-06-06T13:09:40.267Z,6.1
2018-06-06T13:10:41.911Z,6.4
2018-06-06T13:11:43.549Z,11.8
2018-06-06T13:12:45.189Z,4.3
2018-06-06T13:13:46.834Z,4.5
2018-06-06T13:14:48.472Z,8.3
2018-06-06T13:15:50.112Z,6.2
2018-06-06T13:16:51.751Z,5.1
2018-06-06T13:17:53.384Z,9.2
2018-06-06T13:18:55.027Z,9.7
2018-06-06T13:19:56.670Z,4.5
2018-06-06T13:20:58.312Z,6.0
2018-06-06T13:21:59.948Z,7.2
2018-06-06T13:23:01.583Z,7.2
2018-06-06T13:24:03.227Z,8.5
2018-06-06T13:25:04.864Z,9.0
2018-06-06T13:26:06.507Z,4.4
2018-06-06T13:27:08.151Z,5.5
2018-06-06T13:28:09.786Z,6.4
2018-06-06T13:29:11.427Z,3.9
2018-06-06T13:30:13.064Z,4.4
2018-06-06T13:31:14.703Z,5.4
2018-06-06T13:32:16.340Z,4.5
2018-06-06T13:33:17.979Z,4.3
2018-06-06T13:34:19.620Z,5.1
2018-06-06T13:35:21.261Z,4.1
2018-06-06T13:36:22.895Z,9.5
2018-06-06T13:37:24.533Z,9.6
2018-06-06T13:38:26.168Z,13.8
2018-06-06T13:39:27.813Z,6.7
2018-06-06T13:40:29.447Z,5.1
2018-06-06T13:41:31.092Z,14.0
2018-06-06T13:42:32.728Z,4.5
2018-06-06T13:43:34.382Z,6.2
2018-06-06T13:44:36.025Z,5.2
2018-06-06T13:45:37.658Z,12.0
2018-06-06T13:46:39.305Z,5.8
2018-06-06T13:47:40.941Z,5.6
2018-06-06T13:48:42.578Z,5.3
2018-06-06T13:49:44.218Z,21.5